sensor_id;sensor_type;location;lat;lon;timestamp;temperature;humidity
49729;DHT22;35617;50.714;7.114;2022-08-19T00:01:34;21.70;92.10
49729;DHT22;35617;50.714;7.114;2022-08-19T00:04:02;21.70;92.30
49729;DHT22;35617;50.714;7.114;2022-08-19T00:06:29;21.60;92.40
49729;DHT22;35617;50.714;7.114;2022-08-19T00:08:55;21.60;92.70
49729;DHT22;35617;50.714;7.114;2022-08-19T00:11:22;21.50;92.90
49729;DHT22;35617;50.714;7.114;2022-08-19T00:13:47;21.40;92.90
49729;DHT22;35617;50.714;7.114;2022-08-19T00:16:16;21.40;93.10
49729;DHT22;35617;50.714;7.114;2022-08-19T00:18:44;21.30;93.20
49729;DHT22;35617;50.714;7.114;2022-08-19T00:21:10;21.40;93.20
49729;DHT22;35617;50.714;7.114;2022-08-19T00:23:36;21.30;93.30
49729;DHT22;35617;50.714;7.114;2022-08-19T00:26:07;21.30;93.40
49729;DHT22;35617;50.714;7.114;2022-08-19T00:28:33;21.30;93.60
49729;DHT22;35617;50.714;7.114;2022-08-19T00:31:04;21.20;93.60
49729;DHT22;35617;50.714;7.114;2022-08-19T00:33:31;21.20;93.70
49729;DHT22;35617;50.714;7.114;2022-08-19T00:36:00;21.30;93.70
49729;DHT22;35617;50.714;7.114;2022-08-19T00:38:26;21.30;93.80
49729;DHT22;35617;50.714;7.114;2022-08-19T00:40:53;21.30;93.80
49729;DHT22;35617;50.714;7.114;2022-08-19T00:43:21;21.30;93.90
49729;DHT22;35617;50.714;7.114;2022-08-19T00:45:47;21.30;93.90
49729;DHT22;35617;50.714;7.114;2022-08-19T00:48:14;21.30;93.80
49729;DHT22;35617;50.714;7.114;2022-08-19T00:50:41;21.30;93.80
49729;DHT22;35617;50.714;7.114;2022-08-19T00:53:12;21.30;93.90
49729;DHT22;35617;50.714;7.114;2022-08-19T00:55:42;21.30;93.90
49729;DHT22;35617;50.714;7.114;2022-08-19T00:58:13;21.30;93.90
49729;DHT22;35617;50.714;7.114;2022-08-19T01:00:39;21.30;93.90
49729;DHT22;35617;50.714;7.114;2022-08-19T01:03:09;21.30;93.90
49729;DHT22;35617;50.714;7.114;2022-08-19T01:05:37;21.30;93.90
49729;DHT22;35617;50.714;7.114;2022-08-19T01:08:06;21.30;93.90
49729;DHT22;35617;50.714;7.114;2022-08-19T01:10:40;21.30;93.90
49729;DHT22;35617;50.714;7.114;2022-08-19T01:13:07;21.30;94.00
49729;DHT22;35617;50.714;7.114;2022-08-19T01:15:38;21.20;94.20
49729;DHT22;35617;50.714;7.114;2022-08-19T01:18:08;21.10;94.30
49729;DHT22;35617;50.714;7.114;2022-08-19T01:20:34;21.10;94.40
49729;DHT22;35617;50.714;7.114;2022-08-19T01:23:01;21.00;94.50
49729;DHT22;35617;50.714;7.114;2022-08-19T01:25:30;21.00;94.60
49729;DHT22;35617;50.714;7.114;2022-08-19T01:27:57;20.90;94.80
49729;DHT22;35617;50.714;7.114;2022-08-19T01:30:27;20.80;94.90
49729;DHT22;35617;50.714;7.114;2022-08-19T01:32:53;20.80;95.00
49729;DHT22;35617;50.714;7.114;2022-08-19T01:35:19;20.70;95.20
49729;DHT22;35617;50.714;7.114;2022-08-19T01:37:58;20.70;95.20
49729;DHT22;35617;50.714;7.114;2022-08-19T01:40:27;20.70;95.30
49729;DHT22;35617;50.714;7.114;2022-08-19T01:42:54;20.70;95.40
49729;DHT22;35617;50.714;7.114;2022-08-19T01:45:22;20.70;95.40
49729;DHT22;35617;50.714;7.114;2022-08-19T01:47:48;20.70;95.50
49729;DHT22;35617;50.714;7.114;2022-08-19T01:50:14;20.70;95.60
49729;DHT22;35617;50.714;7.114;2022-08-19T01:52:41;20.70;95.60
49729;DHT22;35617;50.714;7.114;2022-08-19T01:55:11;20.70;95.50
49729;DHT22;35617;50.714;7.114;2022-08-19T01:57:38;20.80;95.50
49729;DHT22;35617;50.714;7.114;2022-08-19T02:00:09;20.80;95.50
49729;DHT22;35617;50.714;7.114;2022-08-19T02:02:35;20.80;95.50
49729;DHT22;35617;50.714;7.114;2022-08-19T02:05:01;20.80;95.50
49729;DHT22;35617;50.714;7.114;2022-08-19T02:07:26;20.80;95.50
49729;DHT22;35617;50.714;7.114;2022-08-19T02:09:54;20.70;95.60
49729;DHT22;35617;50.714;7.114;2022-08-19T02:12:21;20.70;95.70
49729;DHT22;35617;50.714;7.114;2022-08-19T02:14:47;20.70;95.80
49729;DHT22;35617;50.714;7.114;2022-08-19T02:17:13;20.70;95.80
49729;DHT22;35617;50.714;7.114;2022-08-19T02:19:38;20.60;95.90
49729;DHT22;35617;50.714;7.114;2022-08-19T02:22:04;20.60;96.00
49729;DHT22;35617;50.714;7.114;2022-08-19T02:24:30;20.50;96.00
49729;DHT22;35617;50.714;7.114;2022-08-19T02:26:56;20.50;96.20
49729;DHT22;35617;50.714;7.114;2022-08-19T02:29:22;20.50;96.20
49729;DHT22;35617;50.714;7.114;2022-08-19T02:31:48;20.50;96.30
49729;DHT22;35617;50.714;7.114;2022-08-19T02:34:13;20.50;96.30
49729;DHT22;35617;50.714;7.114;2022-08-19T02:36:39;20.50;96.30
49729;DHT22;35617;50.714;7.114;2022-08-19T02:39:05;20.50;96.30
49729;DHT22;35617;50.714;7.114;2022-08-19T02:41:32;20.60;96.30
49729;DHT22;35617;50.714;7.114;2022-08-19T02:44:00;20.50;96.20
49729;DHT22;35617;50.714;7.114;2022-08-19T02:46:28;20.50;96.30
49729;DHT22;35617;50.714;7.114;2022-08-19T02:48:58;20.60;96.30
49729;DHT22;35617;50.714;7.114;2022-08-19T02:51:43;20.50;96.30
49729;DHT22;35617;50.714;7.114;2022-08-19T02:54:09;20.50;96.30
49729;DHT22;35617;50.714;7.114;2022-08-19T02:56:37;20.50;96.20
49729;DHT22;35617;50.714;7.114;2022-08-19T02:59:04;20.50;96.30
49729;DHT22;35617;50.714;7.114;2022-08-19T03:01:36;20.50;96.30
49729;DHT22;35617;50.714;7.114;2022-08-19T03:04:05;20.40;96.40
49729;DHT22;35617;50.714;7.114;2022-08-19T03:06:31;20.50;96.50
49729;DHT22;35617;50.714;7.114;2022-08-19T03:08:57;20.40;96.50
49729;DHT22;35617;50.714;7.114;2022-08-19T03:11:29;20.40;96.50
49729;DHT22;35617;50.714;7.114;2022-08-19T03:13:56;20.50;96.60
49729;DHT22;35617;50.714;7.114;2022-08-19T03:16:23;20.50;96.50
49729;DHT22;35617;50.714;7.114;2022-08-19T03:18:50;20.50;96.50
49729;DHT22;35617;50.714;7.114;2022-08-19T03:21:18;20.50;96.50
49729;DHT22;35617;50.714;7.114;2022-08-19T03:23:44;20.50;96.50
49729;DHT22;35617;50.714;7.114;2022-08-19T03:26:10;20.50;96.50
49729;DHT22;35617;50.714;7.114;2022-08-19T03:28:35;20.40;96.60
49729;DHT22;35617;50.714;7.114;2022-08-19T03:31:05;20.40;96.70
49729;DHT22;35617;50.714;7.114;2022-08-19T03:33:34;20.40;96.80
49729;DHT22;35617;50.714;7.114;2022-08-19T03:36:06;20.40;96.80
49729;DHT22;35617;50.714;7.114;2022-08-19T03:38:38;20.40;96.80
49729;DHT22;35617;50.714;7.114;2022-08-19T03:41:09;20.30;96.90
49729;DHT22;35617;50.714;7.114;2022-08-19T03:43:37;20.30;97.20
49729;DHT22;35617;50.714;7.114;2022-08-19T03:46:06;20.30;97.00
49729;DHT22;35617;50.714;7.114;2022-08-19T03:48:33;20.30;97.00
49729;DHT22;35617;50.714;7.114;2022-08-19T03:51:00;20.20;97.50
49729;DHT22;35617;50.714;7.114;2022-08-19T03:53:27;20.20;97.50
49729;DHT22;35617;50.714;7.114;2022-08-19T03:55:54;20.20;97.80
49729;DHT22;35617;50.714;7.114;2022-08-19T03:58:20;20.10;97.50
49729;DHT22;35617;50.714;7.114;2022-08-19T04:00:46;20.10;97.60
49729;DHT22;35617;50.714;7.114;2022-08-19T04:03:12;20.10;97.70
49729;DHT22;35617;50.714;7.114;2022-08-19T04:05:37;20.10;97.70
49729;DHT22;35617;50.714;7.114;2022-08-19T04:08:04;20.00;97.80
49729;DHT22;35617;50.714;7.114;2022-08-19T04:10:35;20.00;98.00
49729;DHT22;35617;50.714;7.114;2022-08-19T04:13:01;20.00;98.10
49729;DHT22;35617;50.714;7.114;2022-08-19T04:15:27;20.00;98.10
49729;DHT22;35617;50.714;7.114;2022-08-19T04:17:55;20.00;98.20
49729;DHT22;35617;50.714;7.114;2022-08-19T04:20:21;19.90;98.30
49729;DHT22;35617;50.714;7.114;2022-08-19T04:22:46;19.90;98.30
49729;DHT22;35617;50.714;7.114;2022-08-19T04:25:14;19.90;98.40
49729;DHT22;35617;50.714;7.114;2022-08-19T04:27:40;19.90;98.40
49729;DHT22;35617;50.714;7.114;2022-08-19T04:30:08;19.90;98.50
49729;DHT22;35617;50.714;7.114;2022-08-19T04:32:34;19.90;98.50
49729;DHT22;35617;50.714;7.114;2022-08-19T04:35:00;19.90;98.40
49729;DHT22;35617;50.714;7.114;2022-08-19T04:37:26;19.90;98.50
49729;DHT22;35617;50.714;7.114;2022-08-19T04:39:52;19.90;98.60
49729;DHT22;35617;50.714;7.114;2022-08-19T04:42:36;19.90;98.50
49729;DHT22;35617;50.714;7.114;2022-08-19T04:45:13;19.90;98.50
49729;DHT22;35617;50.714;7.114;2022-08-19T04:47:40;19.90;98.60
49729;DHT22;35617;50.714;7.114;2022-08-19T04:50:07;19.90;98.50
49729;DHT22;35617;50.714;7.114;2022-08-19T04:52:33;19.90;98.90
49729;DHT22;35617;50.714;7.114;2022-08-19T04:54:59;20.00;98.60
49729;DHT22;35617;50.714;7.114;2022-08-19T04:57:24;20.00;98.60
49729;DHT22;35617;50.714;7.114;2022-08-19T04:59:55;19.90;98.70
49729;DHT22;35617;50.714;7.114;2022-08-19T05:02:22;19.90;98.80
49729;DHT22;35617;50.714;7.114;2022-08-19T05:04:56;19.90;98.90
49729;DHT22;35617;50.714;7.114;2022-08-19T05:07:22;19.90;99.10
49729;DHT22;35617;50.714;7.114;2022-08-19T05:09:48;19.90;99.10
49729;DHT22;35617;50.714;7.114;2022-08-19T05:12:13;19.90;99.10
49729;DHT22;35617;50.714;7.114;2022-08-19T05:14:39;19.90;99.20
49729;DHT22;35617;50.714;7.114;2022-08-19T05:17:04;19.90;99.20
49729;DHT22;35617;50.714;7.114;2022-08-19T05:19:30;19.90;99.60
49729;DHT22;35617;50.714;7.114;2022-08-19T05:22:34;19.90;99.30
49729;DHT22;35617;50.714;7.114;2022-08-19T05:25:09;19.90;99.40
49729;DHT22;35617;50.714;7.114;2022-08-19T05:27:37;19.90;99.50
49729;DHT22;35617;50.714;7.114;2022-08-19T05:30:04;19.90;99.50
49729;DHT22;35617;50.714;7.114;2022-08-19T05:32:30;19.90;99.60
49729;DHT22;35617;50.714;7.114;2022-08-19T05:34:56;19.80;99.70
49729;DHT22;35617;50.714;7.114;2022-08-19T05:37:22;19.90;99.80
49729;DHT22;35617;50.714;7.114;2022-08-19T05:39:48;19.90;99.90
49729;DHT22;35617;50.714;7.114;2022-08-19T05:42:14;19.90;99.90
49729;DHT22;35617;50.714;7.114;2022-08-19T05:44:43;19.90;99.90
49729;DHT22;35617;50.714;7.114;2022-08-19T05:47:10;19.80;99.90
49729;DHT22;35617;50.714;7.114;2022-08-19T05:49:37;19.90;99.90
49729;DHT22;35617;50.714;7.114;2022-08-19T05:52:05;19.80;99.90
49729;DHT22;35617;50.714;7.114;2022-08-19T05:54:32;19.80;99.90
49729;DHT22;35617;50.714;7.114;2022-08-19T05:56:58;19.90;99.90
49729;DHT22;35617;50.714;7.114;2022-08-19T05:59:24;19.90;99.90
49729;DHT22;35617;50.714;7.114;2022-08-19T06:01:51;19.90;99.90
49729;DHT22;35617;50.714;7.114;2022-08-19T06:04:18;19.90;99.90
49729;DHT22;35617;50.714;7.114;2022-08-19T06:06:46;19.80;99.90
49729;DHT22;35617;50.714;7.114;2022-08-19T06:09:12;19.80;99.90
49729;DHT22;35617;50.714;7.114;2022-08-19T06:11:46;19.80;99.90
49729;DHT22;35617;50.714;7.114;2022-08-19T06:14:15;19.80;99.90
49729;DHT22;35617;50.714;7.114;2022-08-19T06:16:43;19.80;99.90
49729;DHT22;35617;50.714;7.114;2022-08-19T06:19:12;19.80;99.90
49729;DHT22;35617;50.714;7.114;2022-08-19T06:21:40;19.90;99.90
49729;DHT22;35617;50.714;7.114;2022-08-19T06:24:08;19.80;99.90
49729;DHT22;35617;50.714;7.114;2022-08-19T06:26:36;19.80;99.90
49729;DHT22;35617;50.714;7.114;2022-08-19T06:29:03;19.90;99.90
49729;DHT22;35617;50.714;7.114;2022-08-19T06:31:31;19.90;99.90
49729;DHT22;35617;50.714;7.114;2022-08-19T06:33:59;19.90;99.90
49729;DHT22;35617;50.714;7.114;2022-08-19T06:36:29;20.00;99.90
49729;DHT22;35617;50.714;7.114;2022-08-19T06:39:08;20.10;99.90
49729;DHT22;35617;50.714;7.114;2022-08-19T06:41:36;20.10;99.90
49729;DHT22;35617;50.714;7.114;2022-08-19T06:44:03;20.20;99.90
49729;DHT22;35617;50.714;7.114;2022-08-19T06:46:28;20.20;99.90
49729;DHT22;35617;50.714;7.114;2022-08-19T06:48:56;20.30;99.90
49729;DHT22;35617;50.714;7.114;2022-08-19T06:51:22;20.30;99.90
49729;DHT22;35617;50.714;7.114;2022-08-19T06:53:50;20.40;99.90
49729;DHT22;35617;50.714;7.114;2022-08-19T06:56:22;20.40;99.90
49729;DHT22;35617;50.714;7.114;2022-08-19T06:58:50;20.50;99.90
49729;DHT22;35617;50.714;7.114;2022-08-19T07:01:18;20.50;99.90
49729;DHT22;35617;50.714;7.114;2022-08-19T07:03:44;20.60;99.90
49729;DHT22;35617;50.714;7.114;2022-08-19T07:06:13;20.60;99.90
49729;DHT22;35617;50.714;7.114;2022-08-19T07:08:41;20.70;99.90
49729;DHT22;35617;50.714;7.114;2022-08-19T07:11:09;20.80;99.90
49729;DHT22;35617;50.714;7.114;2022-08-19T07:13:35;20.80;99.90
49729;DHT22;35617;50.714;7.114;2022-08-19T07:16:06;20.90;99.70
49729;DHT22;35617;50.714;7.114;2022-08-19T07:18:33;20.90;99.60
49729;DHT22;35617;50.714;7.114;2022-08-19T07:21:09;20.90;99.50
49729;DHT22;35617;50.714;7.114;2022-08-19T07:23:35;21.00;99.40
49729;DHT22;35617;50.714;7.114;2022-08-19T07:26:12;21.10;99.30
49729;DHT22;35617;50.714;7.114;2022-08-19T07:28:38;21.20;99.10
49729;DHT22;35617;50.714;7.114;2022-08-19T07:31:06;21.30;98.90
49729;DHT22;35617;50.714;7.114;2022-08-19T07:33:32;21.40;98.80
49729;DHT22;35617;50.714;7.114;2022-08-19T07:35:58;21.50;98.60
49729;DHT22;35617;50.714;7.114;2022-08-19T07:38:24;21.60;98.40
49729;DHT22;35617;50.714;7.114;2022-08-19T07:40:50;21.70;98.20
49729;DHT22;35617;50.714;7.114;2022-08-19T07:43:17;21.70;98.00
49729;DHT22;35617;50.714;7.114;2022-08-19T07:45:46;21.80;98.00
49729;DHT22;35617;50.714;7.114;2022-08-19T07:48:12;22.00;98.00
49729;DHT22;35617;50.714;7.114;2022-08-19T07:50:38;22.10;97.70
49729;DHT22;35617;50.714;7.114;2022-08-19T07:53:03;22.30;97.40
49729;DHT22;35617;50.714;7.114;2022-08-19T07:55:29;22.40;97.30
49729;DHT22;35617;50.714;7.114;2022-08-19T07:57:54;22.50;96.80
49729;DHT22;35617;50.714;7.114;2022-08-19T08:00:20;22.50;96.00
49729;DHT22;35617;50.714;7.114;2022-08-19T08:02:46;22.60;96.30
49729;DHT22;35617;50.714;7.114;2022-08-19T08:05:12;22.70;95.90
49729;DHT22;35617;50.714;7.114;2022-08-19T08:07:56;22.80;95.90
49729;DHT22;35617;50.714;7.114;2022-08-19T08:10:40;22.90;95.90
49729;DHT22;35617;50.714;7.114;2022-08-19T08:13:06;23.00;95.80
49729;DHT22;35617;50.714;7.114;2022-08-19T08:15:32;23.10;95.70
49729;DHT22;35617;50.714;7.114;2022-08-19T08:17:57;23.20;95.20
49729;DHT22;35617;50.714;7.114;2022-08-19T08:20:24;23.20;95.20
49729;DHT22;35617;50.714;7.114;2022-08-19T08:22:50;23.30;95.20
49729;DHT22;35617;50.714;7.114;2022-08-19T08:25:35;23.30;95.00
49729;DHT22;35617;50.714;7.114;2022-08-19T08:28:02;23.40;94.80
49729;DHT22;35617;50.714;7.114;2022-08-19T08:30:29;23.50;94.70
49729;DHT22;35617;50.714;7.114;2022-08-19T08:32:55;23.60;94.30
49729;DHT22;35617;50.714;7.114;2022-08-19T08:35:22;23.60;94.20
49729;DHT22;35617;50.714;7.114;2022-08-19T08:37:49;23.70;93.90
49729;DHT22;35617;50.714;7.114;2022-08-19T08:40:28;23.80;93.60
49729;DHT22;35617;50.714;7.114;2022-08-19T08:43:05;23.80;93.60
49729;DHT22;35617;50.714;7.114;2022-08-19T08:45:33;23.90;93.50
49729;DHT22;35617;50.714;7.114;2022-08-19T08:48:11;24.00;93.10
49729;DHT22;35617;50.714;7.114;2022-08-19T08:50:43;24.00;93.00
49729;DHT22;35617;50.714;7.114;2022-08-19T08:53:14;24.00;92.90
49729;DHT22;35617;50.714;7.114;2022-08-19T08:55:40;24.00;93.10
49729;DHT22;35617;50.714;7.114;2022-08-19T08:58:12;24.00;93.10
49729;DHT22;35617;50.714;7.114;2022-08-19T09:00:46;24.10;93.20
49729;DHT22;35617;50.714;7.114;2022-08-19T09:03:25;24.10;93.00
49729;DHT22;35617;50.714;7.114;2022-08-19T09:06:07;24.10;92.80
49729;DHT22;35617;50.714;7.114;2022-08-19T09:08:59;24.10;92.70
49729;DHT22;35617;50.714;7.114;2022-08-19T09:14:50;24.20;92.50
49729;DHT22;35617;50.714;7.114;2022-08-19T09:17:20;24.30;92.30
49729;DHT22;35617;50.714;7.114;2022-08-19T09:22:37;24.30;91.60
49729;DHT22;35617;50.714;7.114;2022-08-19T09:25:05;24.40;91.60
49729;DHT22;35617;50.714;7.114;2022-08-19T09:27:31;24.50;91.90
49729;DHT22;35617;50.714;7.114;2022-08-19T09:29:57;24.50;91.40
49729;DHT22;35617;50.714;7.114;2022-08-19T09:32:23;24.50;91.20
49729;DHT22;35617;50.714;7.114;2022-08-19T09:34:50;24.60;91.20
49729;DHT22;35617;50.714;7.114;2022-08-19T09:37:19;24.60;90.80
49729;DHT22;35617;50.714;7.114;2022-08-19T09:39:45;24.60;90.50
49729;DHT22;35617;50.714;7.114;2022-08-19T09:42:11;24.70;90.70
49729;DHT22;35617;50.714;7.114;2022-08-19T09:44:40;24.70;90.70
49729;DHT22;35617;50.714;7.114;2022-08-19T09:47:06;24.70;90.40
49729;DHT22;35617;50.714;7.114;2022-08-19T09:49:33;24.70;90.40
49729;DHT22;35617;50.714;7.114;2022-08-19T09:51:59;24.70;90.30
49729;DHT22;35617;50.714;7.114;2022-08-19T09:54:25;24.80;90.30
49729;DHT22;35617;50.714;7.114;2022-08-19T09:56:55;24.80;89.50
49729;DHT22;35617;50.714;7.114;2022-08-19T09:59:23;24.90;90.00
49729;DHT22;35617;50.714;7.114;2022-08-19T10:01:49;24.90;90.10
49729;DHT22;35617;50.714;7.114;2022-08-19T10:04:15;24.90;88.30
49729;DHT22;35617;50.714;7.114;2022-08-19T10:06:41;24.90;88.60
49729;DHT22;35617;50.714;7.114;2022-08-19T10:09:08;24.90;88.40
49729;DHT22;35617;50.714;7.114;2022-08-19T10:11:35;24.90;88.30
49729;DHT22;35617;50.714;7.114;2022-08-19T10:14:03;24.90;88.70
49729;DHT22;35617;50.714;7.114;2022-08-19T10:16:31;25.00;88.00
49729;DHT22;35617;50.714;7.114;2022-08-19T10:18:57;25.00;86.70
49729;DHT22;35617;50.714;7.114;2022-08-19T10:21:29;25.10;87.00
49729;DHT22;35617;50.714;7.114;2022-08-19T10:23:58;25.20;86.90
49729;DHT22;35617;50.714;7.114;2022-08-19T10:26:37;25.20;86.70
49729;DHT22;35617;50.714;7.114;2022-08-19T10:29:04;25.30;86.80
49729;DHT22;35617;50.714;7.114;2022-08-19T10:31:32;25.40;85.90
49729;DHT22;35617;50.714;7.114;2022-08-19T10:33:58;25.50;84.80
49729;DHT22;35617;50.714;7.114;2022-08-19T10:36:30;25.50;84.60
49729;DHT22;35617;50.714;7.114;2022-08-19T10:38:58;25.70;85.10
49729;DHT22;35617;50.714;7.114;2022-08-19T10:41:29;25.80;83.90
49729;DHT22;35617;50.714;7.114;2022-08-19T10:43:57;25.90;82.70
49729;DHT22;35617;50.714;7.114;2022-08-19T10:46:25;26.00;82.90
49729;DHT22;35617;50.714;7.114;2022-08-19T10:48:52;26.10;82.70
49729;DHT22;35617;50.714;7.114;2022-08-19T10:51:18;26.10;82.10
49729;DHT22;35617;50.714;7.114;2022-08-19T10:54:04;26.30;80.70
49729;DHT22;35617;50.714;7.114;2022-08-19T10:56:30;26.40;81.40
49729;DHT22;35617;50.714;7.114;2022-08-19T10:59:14;26.60;80.00
49729;DHT22;35617;50.714;7.114;2022-08-19T11:01:42;26.70;79.00
49729;DHT22;35617;50.714;7.114;2022-08-19T11:04:08;26.80;78.00
49729;DHT22;35617;50.714;7.114;2022-08-19T11:06:36;26.90;77.00
49729;DHT22;35617;50.714;7.114;2022-08-19T11:09:05;27.00;76.00
49729;DHT22;35617;50.714;7.114;2022-08-19T11:11:31;26.90;76.20
49729;DHT22;35617;50.714;7.114;2022-08-19T11:13:58;27.00;75.70
49729;DHT22;35617;50.714;7.114;2022-08-19T11:16:26;27.00;75.30
49729;DHT22;35617;50.714;7.114;2022-08-19T11:18:58;27.10;75.00
49729;DHT22;35617;50.714;7.114;2022-08-19T11:21:29;27.00;74.40
49729;DHT22;35617;50.714;7.114;2022-08-19T11:24:02;27.00;73.40
49729;DHT22;35617;50.714;7.114;2022-08-19T11:26:30;27.00;72.70
49729;DHT22;35617;50.714;7.114;2022-08-19T11:28:57;26.90;72.80
49729;DHT22;35617;50.714;7.114;2022-08-19T11:31:25;27.00;72.90
49729;DHT22;35617;50.714;7.114;2022-08-19T11:33:51;27.10;73.10
49729;DHT22;35617;50.714;7.114;2022-08-19T11:36:19;27.20;71.00
49729;DHT22;35617;50.714;7.114;2022-08-19T11:38:46;27.30;71.20
49729;DHT22;35617;50.714;7.114;2022-08-19T11:41:14;27.40;69.90
49729;DHT22;35617;50.714;7.114;2022-08-19T11:43:40;27.50;69.60
49729;DHT22;35617;50.714;7.114;2022-08-19T11:46:10;27.50;69.30
49729;DHT22;35617;50.714;7.114;2022-08-19T11:48:37;27.60;69.10
49729;DHT22;35617;50.714;7.114;2022-08-19T11:51:07;27.70;67.80
49729;DHT22;35617;50.714;7.114;2022-08-19T11:53:34;27.80;67.20
49729;DHT22;35617;50.714;7.114;2022-08-19T11:56:00;27.80;67.40
49729;DHT22;35617;50.714;7.114;2022-08-19T11:58:26;27.80;66.80
49729;DHT22;35617;50.714;7.114;2022-08-19T12:00:52;27.90;66.80
49729;DHT22;35617;50.714;7.114;2022-08-19T12:03:18;27.90;64.90
49729;DHT22;35617;50.714;7.114;2022-08-19T12:05:44;28.00;66.10
49729;DHT22;35617;50.714;7.114;2022-08-19T12:08:10;28.00;66.50
49729;DHT22;35617;50.714;7.114;2022-08-19T12:10:39;28.10;65.70
49729;DHT22;35617;50.714;7.114;2022-08-19T12:13:05;28.10;65.70
49729;DHT22;35617;50.714;7.114;2022-08-19T12:15:36;28.10;64.80
49729;DHT22;35617;50.714;7.114;2022-08-19T12:18:02;28.00;64.50
49729;DHT22;35617;50.714;7.114;2022-08-19T12:20:28;27.90;64.10
49729;DHT22;35617;50.714;7.114;2022-08-19T12:22:54;27.80;64.50
49729;DHT22;35617;50.714;7.114;2022-08-19T12:25:20;27.80;65.30
49729;DHT22;35617;50.714;7.114;2022-08-19T12:27:46;27.70;65.90
49729;DHT22;35617;50.714;7.114;2022-08-19T12:30:12;27.60;66.20
49729;DHT22;35617;50.714;7.114;2022-08-19T12:32:39;27.60;65.60
49729;DHT22;35617;50.714;7.114;2022-08-19T12:35:06;27.60;65.80
49729;DHT22;35617;50.714;7.114;2022-08-19T12:37:32;27.60;65.60
49729;DHT22;35617;50.714;7.114;2022-08-19T12:39:58;27.60;65.60
49729;DHT22;35617;50.714;7.114;2022-08-19T12:42:24;27.60;65.40
49729;DHT22;35617;50.714;7.114;2022-08-19T12:44:49;27.60;65.90
49729;DHT22;35617;50.714;7.114;2022-08-19T12:47:17;27.60;65.80
49729;DHT22;35617;50.714;7.114;2022-08-19T12:49:43;27.70;65.80
49729;DHT22;35617;50.714;7.114;2022-08-19T12:52:10;27.70;65.40
49729;DHT22;35617;50.714;7.114;2022-08-19T12:54:36;27.80;65.00
49729;DHT22;35617;50.714;7.114;2022-08-19T12:57:09;27.80;65.00
49729;DHT22;35617;50.714;7.114;2022-08-19T12:59:36;27.80;65.50
49729;DHT22;35617;50.714;7.114;2022-08-19T13:02:07;27.70;65.90
49729;DHT22;35617;50.714;7.114;2022-08-19T13:04:33;27.70;66.00
49729;DHT22;35617;50.714;7.114;2022-08-19T13:07:02;27.70;65.70
49729;DHT22;35617;50.714;7.114;2022-08-19T13:09:27;27.50;66.10
49729;DHT22;35617;50.714;7.114;2022-08-19T13:11:53;27.50;66.50
49729;DHT22;35617;50.714;7.114;2022-08-19T13:14:18;27.60;66.10
49729;DHT22;35617;50.714;7.114;2022-08-19T13:16:44;27.80;66.00
49729;DHT22;35617;50.714;7.114;2022-08-19T13:19:09;27.90;66.20
49729;DHT22;35617;50.714;7.114;2022-08-19T13:21:37;28.00;64.20
49729;DHT22;35617;50.714;7.114;2022-08-19T13:24:03;28.00;64.00
49729;DHT22;35617;50.714;7.114;2022-08-19T13:26:29;28.00;63.30
49729;DHT22;35617;50.714;7.114;2022-08-19T13:28:54;28.00;61.50
49729;DHT22;35617;50.714;7.114;2022-08-19T13:31:58;28.10;60.80
49729;DHT22;35617;50.714;7.114;2022-08-19T13:34:42;28.10;60.60
49729;DHT22;35617;50.714;7.114;2022-08-19T13:37:08;28.10;60.80
49729;DHT22;35617;50.714;7.114;2022-08-19T13:39:35;28.20;60.90
49729;DHT22;35617;50.714;7.114;2022-08-19T13:42:01;28.30;60.50
49729;DHT22;35617;50.714;7.114;2022-08-19T13:44:28;28.40;60.50
49729;DHT22;35617;50.714;7.114;2022-08-19T13:47:02;28.40;60.60
49729;DHT22;35617;50.714;7.114;2022-08-19T13:49:31;28.50;60.80
49729;DHT22;35617;50.714;7.114;2022-08-19T13:51:57;28.60;61.10
49729;DHT22;35617;50.714;7.114;2022-08-19T13:54:22;28.60;61.10
49729;DHT22;35617;50.714;7.114;2022-08-19T13:56:48;28.50;60.40
49729;DHT22;35617;50.714;7.114;2022-08-19T13:59:14;28.50;60.50
49729;DHT22;35617;50.714;7.114;2022-08-19T14:01:40;28.50;60.80
49729;DHT22;35617;50.714;7.114;2022-08-19T14:04:07;28.60;60.10
49729;DHT22;35617;50.714;7.114;2022-08-19T14:06:33;28.70;59.10
49729;DHT22;35617;50.714;7.114;2022-08-19T14:08:59;28.70;58.70
49729;DHT22;35617;50.714;7.114;2022-08-19T14:11:25;28.70;58.50
49729;DHT22;35617;50.714;7.114;2022-08-19T14:13:51;28.90;58.60
49729;DHT22;35617;50.714;7.114;2022-08-19T14:16:17;29.00;57.90
49729;DHT22;35617;50.714;7.114;2022-08-19T14:18:43;29.20;57.70
49729;DHT22;35617;50.714;7.114;2022-08-19T14:21:21;29.30;56.20
49729;DHT22;35617;50.714;7.114;2022-08-19T14:23:48;29.20;56.10
49729;DHT22;35617;50.714;7.114;2022-08-19T14:26:16;29.20;56.40
49729;DHT22;35617;50.714;7.114;2022-08-19T14:28:43;29.20;56.30
49729;DHT22;35617;50.714;7.114;2022-08-19T14:31:14;29.30;56.70
49729;DHT22;35617;50.714;7.114;2022-08-19T14:33:43;29.40;56.20
49729;DHT22;35617;50.714;7.114;2022-08-19T14:36:09;29.60;55.80
49729;DHT22;35617;50.714;7.114;2022-08-19T14:38:35;29.60;55.90
49729;DHT22;35617;50.714;7.114;2022-08-19T14:43:37;29.40;56.40
49729;DHT22;35617;50.714;7.114;2022-08-19T14:46:03;29.50;55.90
49729;DHT22;35617;50.714;7.114;2022-08-19T14:48:29;29.50;56.20
49729;DHT22;35617;50.714;7.114;2022-08-19T14:50:55;29.60;55.20
49729;DHT22;35617;50.714;7.114;2022-08-19T14:53:20;29.60;54.90
49729;DHT22;35617;50.714;7.114;2022-08-19T14:55:47;29.60;54.40
49729;DHT22;35617;50.714;7.114;2022-08-19T14:58:14;29.50;54.60
49729;DHT22;35617;50.714;7.114;2022-08-19T15:00:40;29.30;54.90
49729;DHT22;35617;50.714;7.114;2022-08-19T15:03:06;29.20;55.50
49729;DHT22;35617;50.714;7.114;2022-08-19T15:05:31;29.30;55.00
49729;DHT22;35617;50.714;7.114;2022-08-19T15:07:57;29.40;54.70
49729;DHT22;35617;50.714;7.114;2022-08-19T15:10:23;29.50;54.70
49729;DHT22;35617;50.714;7.114;2022-08-19T15:12:50;29.50;54.80
49729;DHT22;35617;50.714;7.114;2022-08-19T15:15:16;29.40;54.90
49729;DHT22;35617;50.714;7.114;2022-08-19T15:17:43;29.40;54.50
49729;DHT22;35617;50.714;7.114;2022-08-19T15:20:11;29.40;54.30
49729;DHT22;35617;50.714;7.114;2022-08-19T15:22:38;29.30;54.70
49729;DHT22;35617;50.714;7.114;2022-08-19T15:25:05;29.50;55.10
49729;DHT22;35617;50.714;7.114;2022-08-19T15:27:31;29.60;54.80
49729;DHT22;35617;50.714;7.114;2022-08-19T15:29:57;29.70;54.50
49729;DHT22;35617;50.714;7.114;2022-08-19T15:32:24;29.70;54.20
49729;DHT22;35617;50.714;7.114;2022-08-19T15:34:51;29.60;54.60
49729;DHT22;35617;50.714;7.114;2022-08-19T15:37:17;29.60;53.60
49729;DHT22;35617;50.714;7.114;2022-08-19T15:39:42;29.70;53.60
49729;DHT22;35617;50.714;7.114;2022-08-19T15:42:08;29.80;53.00
49729;DHT22;35617;50.714;7.114;2022-08-19T15:44:33;29.60;52.60